sensor_id;sensor_type;location;lat;lon;timestamp;P1;durP1;ratioP1;P2;durP2;ratioP2
39128;SDS011;24864;49.940;19.770;2023-07-16T00:01:54;9.77;;;7.95;;
39128;SDS011;24864;49.940;19.770;2023-07-16T00:04:22;11.77;;;7.55;;
39128;SDS011;24864;49.940;19.770;2023-07-16T00:06:51;11.70;;;8.40;;
39128;SDS011;24864;49.940;19.770;2023-07-16T00:09:19;9.38;;;8.15;;
39128;SDS011;24864;49.940;19.770;2023-07-16T00:11:47;8.95;;;7.95;;
39128;SDS011;24864;49.940;19.770;2023-07-16T00:14:15;8.82;;;8.02;;
39128;SDS011;24864;49.940;19.770;2023-07-16T00:16:43;9.70;;;7.53;;
39128;SDS011;24864;49.940;19.770;2023-07-16T00:19:14;15.98;;;7.63;;
39128;SDS011;24864;49.940;19.770;2023-07-16T00:21:42;8.00;;;7.20;;
39128;SDS011;24864;49.940;19.770;2023-07-16T00:24:10;10.55;;;7.47;;
39128;SDS011;24864;49.940;19.770;2023-07-16T00:26:38;7.82;;;6.95;;
39128;SDS011;24864;49.940;19.770;2023-07-16T00:29:06;8.52;;;7.30;;
39128;SDS011;24864;49.940;19.770;2023-07-16T00:31:35;9.65;;;7.15;;
39128;SDS011;24864;49.940;19.770;2023-07-16T00:34:03;8.80;;;7.07;;
39128;SDS011;24864;49.940;19.770;2023-07-16T00:36:32;10.43;;;8.02;;
39128;SDS011;24864;49.940;19.770;2023-07-16T00:39:01;9.70;;;7.63;;
39128;SDS011;24864;49.940;19.770;2023-07-16T00:41:29;8.38;;;7.57;;
39128;SDS011;24864;49.940;19.770;2023-07-16T00:43:57;10.52;;;7.00;;
39128;SDS011;24864;49.940;19.770;2023-07-16T00:46:25;7.53;;;6.80;;
39128;SDS011;24864;49.940;19.770;2023-07-16T00:48:53;9.00;;;6.97;;
39128;SDS011;24864;49.940;19.770;2023-07-16T00:51:21;8.05;;;7.22;;
39128;SDS011;24864;49.940;19.770;2023-07-16T00:53:51;8.30;;;7.00;;
39128;SDS011;24864;49.940;19.770;2023-07-16T00:56:19;11.20;;;6.18;;
39128;SDS011;24864;49.940;19.770;2023-07-16T00:58:49;8.05;;;6.57;;
39128;SDS011;24864;49.940;19.770;2023-07-16T01:04:19;13.38;;;6.93;;
39128;SDS011;24864;49.940;19.770;2023-07-16T01:06:48;8.18;;;6.30;;
39128;SDS011;24864;49.940;19.770;2023-07-16T01:09:20;7.55;;;6.85;;
39128;SDS011;24864;49.940;19.770;2023-07-16T01:11:49;7.65;;;6.90;;
39128;SDS011;24864;49.940;19.770;2023-07-16T01:14:17;11.15;;;6.45;;
39128;SDS011;24864;49.940;19.770;2023-07-16T01:16:45;11.20;;;6.53;;
39128;SDS011;24864;49.940;19.770;2023-07-16T01:19:14;6.65;;;6.00;;
39128;SDS011;24864;49.940;19.770;2023-07-16T01:21:43;7.25;;;6.00;;
39128;SDS011;24864;49.940;19.770;2023-07-16T01:24:22;7.00;;;5.75;;
39128;SDS011;24864;49.940;19.770;2023-07-16T01:27:12;7.73;;;6.60;;
39128;SDS011;24864;49.940;19.770;2023-07-16T01:29:47;8.60;;;6.35;;
39128;SDS011;24864;49.940;19.770;2023-07-16T01:32:17;6.18;;;5.57;;
39128;SDS011;24864;49.940;19.770;2023-07-16T01:34:45;9.25;;;6.55;;
39128;SDS011;24864;49.940;19.770;2023-07-16T01:37:14;9.10;;;6.57;;
39128;SDS011;24864;49.940;19.770;2023-07-16T01:39:42;6.70;;;5.65;;
39128;SDS011;24864;49.940;19.770;2023-07-16T01:42:11;9.60;;;5.97;;
39128;SDS011;24864;49.940;19.770;2023-07-16T01:44:39;6.38;;;5.57;;
39128;SDS011;24864;49.940;19.770;2023-07-16T01:47:09;6.93;;;6.25;;
39128;SDS011;24864;49.940;19.770;2023-07-16T01:49:38;10.17;;;6.60;;
39128;SDS011;24864;49.940;19.770;2023-07-16T01:52:09;7.68;;;5.55;;
39128;SDS011;24864;49.940;19.770;2023-07-16T01:54:37;7.47;;;6.13;;
39128;SDS011;24864;49.940;19.770;2023-07-16T01:57:05;6.97;;;6.30;;
39128;SDS011;24864;49.940;19.770;2023-07-16T01:59:33;9.10;;;6.05;;
39128;SDS011;24864;49.940;19.770;2023-07-16T02:02:02;9.15;;;6.80;;
39128;SDS011;24864;49.940;19.770;2023-07-16T02:04:31;7.32;;;6.03;;
39128;SDS011;24864;49.940;19.770;2023-07-16T02:07:00;7.50;;;5.88;;
39128;SDS011;24864;49.940;19.770;2023-07-16T02:09:28;6.57;;;5.68;;
39128;SDS011;24864;49.940;19.770;2023-07-16T02:11:57;6.25;;;5.65;;
39128;SDS011;24864;49.940;19.770;2023-07-16T02:14:25;6.05;;;5.53;;
39128;SDS011;24864;49.940;19.770;2023-07-16T02:16:53;8.25;;;5.53;;
39128;SDS011;24864;49.940;19.770;2023-07-16T02:19:21;5.55;;;5.05;;
39128;SDS011;24864;49.940;19.770;2023-07-16T02:21:51;9.50;;;6.00;;
39128;SDS011;24864;49.940;19.770;2023-07-16T02:24:21;8.32;;;6.07;;
39128;SDS011;24864;49.940;19.770;2023-07-16T02:26:49;7.90;;;6.05;;
39128;SDS011;24864;49.940;19.770;2023-07-16T02:29:17;7.00;;;5.95;;
39128;SDS011;24864;49.940;19.770;2023-07-16T02:31:46;10.82;;;5.97;;
39128;SDS011;24864;49.940;19.770;2023-07-16T02:34:15;7.30;;;6.50;;
39128;SDS011;24864;49.940;19.770;2023-07-16T02:36:43;6.90;;;6.30;;
39128;SDS011;24864;49.940;19.770;2023-07-16T02:39:13;8.85;;;6.20;;
39128;SDS011;24864;49.940;19.770;2023-07-16T02:41:41;7.13;;;6.43;;
39128;SDS011;24864;49.940;19.770;2023-07-16T02:44:09;9.65;;;6.10;;
39128;SDS011;24864;49.940;19.770;2023-07-16T02:46:37;7.45;;;6.75;;
39128;SDS011;24864;49.940;19.770;2023-07-16T02:49:05;7.20;;;6.32;;
39128;SDS011;24864;49.940;19.770;2023-07-16T02:51:34;8.70;;;7.20;;
39128;SDS011;24864;49.940;19.770;2023-07-16T02:54:02;16.17;;;6.60;;
39128;SDS011;24864;49.940;19.770;2023-07-16T02:56:31;7.38;;;6.68;;
39128;SDS011;24864;49.940;19.770;2023-07-16T02:58:59;7.30;;;6.63;;
39128;SDS011;24864;49.940;19.770;2023-07-16T03:01:28;7.60;;;6.60;;
39128;SDS011;24864;49.940;19.770;2023-07-16T03:03:56;7.13;;;6.43;;
39128;SDS011;24864;49.940;19.770;2023-07-16T03:06:24;10.25;;;6.22;;
39128;SDS011;24864;49.940;19.770;2023-07-16T03:08:52;10.02;;;6.53;;
39128;SDS011;24864;49.940;19.770;2023-07-16T03:11:21;8.63;;;6.80;;
39128;SDS011;24864;49.940;19.770;2023-07-16T03:13:50;8.38;;;6.15;;
39128;SDS011;24864;49.940;19.770;2023-07-16T03:16:18;8.32;;;6.05;;
39128;SDS011;24864;49.940;19.770;2023-07-16T03:18:46;8.88;;;6.72;;
39128;SDS011;24864;49.940;19.770;2023-07-16T03:21:15;8.02;;;6.40;;
39128;SDS011;24864;49.940;19.770;2023-07-16T03:23:43;11.15;;;6.68;;
39128;SDS011;24864;49.940;19.770;2023-07-16T03:26:11;7.07;;;6.38;;
39128;SDS011;24864;49.940;19.770;2023-07-16T03:28:39;9.43;;;6.47;;
39128;SDS011;24864;49.940;19.770;2023-07-16T03:31:09;9.80;;;6.32;;
39128;SDS011;24864;49.940;19.770;2023-07-16T03:33:37;9.05;;;6.43;;
39128;SDS011;24864;49.940;19.770;2023-07-16T03:36:06;12.82;;;8.95;;
39128;SDS011;24864;49.940;19.770;2023-07-16T03:38:34;12.40;;;8.98;;
39128;SDS011;24864;49.940;19.770;2023-07-16T03:41:02;14.57;;;12.93;;
39128;SDS011;24864;49.940;19.770;2023-07-16T03:43:30;19.30;;;14.15;;
39128;SDS011;24864;49.940;19.770;2023-07-16T03:45:58;16.05;;;12.93;;
39128;SDS011;24864;49.940;19.770;2023-07-16T03:48:27;19.08;;;14.20;;
39128;SDS011;24864;49.940;19.770;2023-07-16T03:50:56;15.85;;;14.27;;
39128;SDS011;24864;49.940;19.770;2023-07-16T03:53:24;18.17;;;14.02;;
39128;SDS011;24864;49.940;19.770;2023-07-16T03:55:52;17.23;;;11.93;;
39128;SDS011;24864;49.940;19.770;2023-07-16T03:58:20;19.70;;;12.50;;
39128;SDS011;24864;49.940;19.770;2023-07-16T04:00:50;14.13;;;11.95;;
39128;SDS011;24864;49.940;19.770;2023-07-16T04:03:18;14.30;;;12.15;;
39128;SDS011;24864;49.940;19.770;2023-07-16T04:05:48;15.45;;;11.68;;
39128;SDS011;24864;49.940;19.770;2023-07-16T04:08:16;11.52;;;10.32;;
39128;SDS011;24864;49.940;19.770;2023-07-16T04:10:44;13.38;;;11.98;;
39128;SDS011;24864;49.940;19.770;2023-07-16T04:13:12;13.60;;;11.98;;
39128;SDS011;24864;49.940;19.770;2023-07-16T04:15:40;12.18;;;10.98;;
39128;SDS011;24864;49.940;19.770;2023-07-16T04:18:08;14.45;;;12.07;;
39128;SDS011;24864;49.940;19.770;2023-07-16T04:20:37;14.55;;;12.00;;
39128;SDS011;24864;49.940;19.770;2023-07-16T04:23:06;12.43;;;10.68;;
39128;SDS011;24864;49.940;19.770;2023-07-16T04:25:34;17.27;;;12.55;;
39128;SDS011;24864;49.940;19.770;2023-07-16T04:28:02;13.43;;;10.95;;
39128;SDS011;24864;49.940;19.770;2023-07-16T04:30:31;14.85;;;11.85;;
39128;SDS011;24864;49.940;19.770;2023-07-16T04:32:59;14.05;;;12.27;;
39128;SDS011;24864;49.940;19.770;2023-07-16T04:35:27;15.15;;;12.35;;
39128;SDS011;24864;49.940;19.770;2023-07-16T04:37:55;15.88;;;12.25;;
39128;SDS011;24864;49.940;19.770;2023-07-16T04:40:25;12.85;;;11.65;;
39128;SDS011;24864;49.940;19.770;2023-07-16T04:42:53;13.80;;;12.48;;
39128;SDS011;24864;49.940;19.770;2023-07-16T04:45:21;13.43;;;12.18;;
39128;SDS011;24864;49.940;19.770;2023-07-16T04:47:49;11.80;;;10.20;;
39128;SDS011;24864;49.940;19.770;2023-07-16T04:50:18;10.20;;;9.13;;
39128;SDS011;24864;49.940;19.770;2023-07-16T04:52:46;15.98;;;9.55;;
39128;SDS011;24864;49.940;19.770;2023-07-16T04:55:14;10.48;;;9.13;;
39128;SDS011;24864;49.940;19.770;2023-07-16T04:57:44;11.75;;;9.15;;
39128;SDS011;24864;49.940;19.770;2023-07-16T05:00:12;11.60;;;8.38;;
39128;SDS011;24864;49.940;19.770;2023-07-16T05:02:41;11.77;;;8.93;;
39128;SDS011;24864;49.940;19.770;2023-07-16T05:05:09;11.68;;;9.30;;
39128;SDS011;24864;49.940;19.770;2023-07-16T05:07:37;11.18;;;9.40;;
39128;SDS011;24864;49.940;19.770;2023-07-16T05:10:06;14.20;;;10.00;;
39128;SDS011;24864;49.940;19.770;2023-07-16T05:12:34;11.10;;;9.88;;
39128;SDS011;24864;49.940;19.770;2023-07-16T05:15:05;10.13;;;9.05;;
39128;SDS011;24864;49.940;19.770;2023-07-16T05:17:33;12.15;;;9.77;;
39128;SDS011;24864;49.940;19.770;2023-07-16T05:20:02;13.32;;;10.85;;
39128;SDS011;24864;49.940;19.770;2023-07-16T05:22:30;11.25;;;9.95;;
39128;SDS011;24864;49.940;19.770;2023-07-16T05:24:59;12.57;;;9.70;;
39128;SDS011;24864;49.940;19.770;2023-07-16T05:27:27;11.07;;;9.02;;
39128;SDS011;24864;49.940;19.770;2023-07-16T05:29:56;9.68;;;8.77;;
39128;SDS011;24864;49.940;19.770;2023-07-16T05:32:25;9.27;;;7.97;;
39128;SDS011;24864;49.940;19.770;2023-07-16T05:34:54;9.70;;;7.38;;
39128;SDS011;24864;49.940;19.770;2023-07-16T05:37:22;11.20;;;6.32;;
39128;SDS011;24864;49.940;19.770;2023-07-16T05:39:50;7.30;;;6.60;;
39128;SDS011;24864;49.940;19.770;2023-07-16T05:42:18;6.97;;;5.95;;
39128;SDS011;24864;49.940;19.770;2023-07-16T05:44:46;8.00;;;6.22;;
39128;SDS011;24864;49.940;19.770;2023-07-16T05:47:15;9.23;;;6.40;;
39128;SDS011;24864;49.940;19.770;2023-07-16T05:49:45;7.00;;;5.93;;
39128;SDS011;24864;49.940;19.770;2023-07-16T05:52:13;8.88;;;6.13;;
39128;SDS011;24864;49.940;19.770;2023-07-16T05:54:42;11.27;;;6.53;;
39128;SDS011;24864;49.940;19.770;2023-07-16T05:57:11;9.07;;;6.28;;
39128;SDS011;24864;49.940;19.770;2023-07-16T05:59:39;10.55;;;5.68;;
39128;SDS011;24864;49.940;19.770;2023-07-16T06:02:07;7.72;;;5.65;;
39128;SDS011;24864;49.940;19.770;2023-07-16T06:04:36;9.20;;;6.32;;
39128;SDS011;24864;49.940;19.770;2023-07-16T06:07:05;7.30;;;6.20;;
39128;SDS011;24864;49.940;19.770;2023-07-16T06:09:34;6.85;;;6.03;;
39128;SDS011;24864;49.940;19.770;2023-07-16T06:12:02;8.90;;;5.88;;
39128;SDS011;24864;49.940;19.770;2023-07-16T06:14:31;5.78;;;5.25;;
39128;SDS011;24864;49.940;19.770;2023-07-16T06:16:59;5.88;;;4.97;;
39128;SDS011;24864;49.940;19.770;2023-07-16T06:19:27;5.80;;;5.30;;
39128;SDS011;24864;49.940;19.770;2023-07-16T06:21:55;5.97;;;5.47;;
39128;SDS011;24864;49.940;19.770;2023-07-16T06:24:25;7.35;;;5.03;;
39128;SDS011;24864;49.940;19.770;2023-07-16T06:26:53;6.13;;;5.63;;
39128;SDS011;24864;49.940;19.770;2023-07-16T06:29:21;5.63;;;5.13;;
39128;SDS011;24864;49.940;19.770;2023-07-16T06:31:56;5.72;;;4.57;;
39128;SDS011;24864;49.940;19.770;2023-07-16T06:34:25;7.38;;;4.93;;
39128;SDS011;24864;49.940;19.770;2023-07-16T06:36:53;5.40;;;4.90;;
39128;SDS011;24864;49.940;19.770;2023-07-16T06:39:21;8.93;;;5.07;;
39128;SDS011;24864;49.940;19.770;2023-07-16T06:41:51;6.78;;;4.80;;
39128;SDS011;24864;49.940;19.770;2023-07-16T06:44:19;6.32;;;4.80;;
39128;SDS011;24864;49.940;19.770;2023-07-16T06:46:47;6.88;;;4.93;;
39128;SDS011;24864;49.940;19.770;2023-07-16T06:49:15;5.05;;;4.65;;
39128;SDS011;24864;49.940;19.770;2023-07-16T06:51:43;5.60;;;4.32;;
39128;SDS011;24864;49.940;19.770;2023-07-16T06:54:12;6.47;;;5.25;;
39128;SDS011;24864;49.940;19.770;2023-07-16T06:56:40;9.52;;;4.88;;
39128;SDS011;24864;49.940;19.770;2023-07-16T06:59:10;5.28;;;4.78;;
39128;SDS011;24864;49.940;19.770;2023-07-16T07:01:38;5.78;;;5.10;;
39128;SDS011;24864;49.940;19.770;2023-07-16T07:04:06;6.90;;;5.30;;
39128;SDS011;24864;49.940;19.770;2023-07-16T07:06:34;8.50;;;5.97;;
39128;SDS011;24864;49.940;19.770;2023-07-16T07:09:03;6.00;;;5.40;;
39128;SDS011;24864;49.940;19.770;2023-07-16T07:11:31;5.90;;;5.30;;
39128;SDS011;24864;49.940;19.770;2023-07-16T07:13:59;7.22;;;5.45;;
39128;SDS011;24864;49.940;19.770;2023-07-16T07:16:29;9.82;;;5.07;;
39128;SDS011;24864;49.940;19.770;2023-07-16T07:18:57;7.95;;;5.78;;
39128;SDS011;24864;49.940;19.770;2023-07-16T07:21:25;5.93;;;5.38;;
39128;SDS011;24864;49.940;19.770;2023-07-16T07:23:53;6.97;;;4.90;;
39128;SDS011;24864;49.940;19.770;2023-07-16T07:26:21;8.57;;;5.63;;
39128;SDS011;24864;49.940;19.770;2023-07-16T07:28:50;5.70;;;5.20;;
39128;SDS011;24864;49.940;19.770;2023-07-16T07:31:18;8.15;;;5.72;;
39128;SDS011;24864;49.940;19.770;2023-07-16T07:33:47;8.52;;;6.05;;
39128;SDS011;24864;49.940;19.770;2023-07-16T07:36:15;9.45;;;6.25;;
39128;SDS011;24864;49.940;19.770;2023-07-16T07:38:44;8.50;;;6.65;;
39128;SDS011;24864;49.940;19.770;2023-07-16T07:41:12;6.47;;;5.57;;
39128;SDS011;24864;49.940;19.770;2023-07-16T07:43:41;7.00;;;5.50;;
39128;SDS011;24864;49.940;19.770;2023-07-16T07:46:09;9.70;;;6.68;;
39128;SDS011;24864;49.940;19.770;2023-07-16T07:48:37;6.38;;;5.78;;
39128;SDS011;24864;49.940;19.770;2023-07-16T07:51:07;9.30;;;5.15;;
39128;SDS011;24864;49.940;19.770;2023-07-16T07:53:35;6.25;;;5.50;;
39128;SDS011;24864;49.940;19.770;2023-07-16T07:56:03;9.02;;;5.43;;
39128;SDS011;24864;49.940;19.770;2023-07-16T07:58:32;7.18;;;5.57;;
39128;SDS011;24864;49.940;19.770;2023-07-16T08:01:03;6.82;;;5.20;;
39128;SDS011;24864;49.940;19.770;2023-07-16T08:03:32;5.70;;;5.13;;
39128;SDS011;24864;49.940;19.770;2023-07-16T08:06:02;5.40;;;4.65;;
39128;SDS011;24864;49.940;19.770;2023-07-16T08:08:31;7.30;;;4.63;;
39128;SDS011;24864;49.940;19.770;2023-07-16T08:10:59;8.15;;;4.45;;
39128;SDS011;24864;49.940;19.770;2023-07-16T08:13:28;6.00;;;5.40;;
39128;SDS011;24864;49.940;19.770;2023-07-16T08:15:56;6.15;;;5.65;;
39128;SDS011;24864;49.940;19.770;2023-07-16T08:18:24;5.43;;;4.88;;
39128;SDS011;24864;49.940;19.770;2023-07-16T08:20:52;6.13;;;5.50;;
39128;SDS011;24864;49.940;19.770;2023-07-16T08:23:21;7.63;;;5.63;;
39128;SDS011;24864;49.940;19.770;2023-07-16T08:25:50;6.32;;;5.72;;
39128;SDS011;24864;49.940;19.770;2023-07-16T08:28:18;6.05;;;5.05;;
39128;SDS011;24864;49.940;19.770;2023-07-16T08:30:46;6.53;;;5.38;;
39128;SDS011;24864;49.940;19.770;2023-07-16T08:33:15;7.32;;;5.13;;
39128;SDS011;24864;49.940;19.770;2023-07-16T08:35:43;5.43;;;4.93;;
39128;SDS011;24864;49.940;19.770;2023-07-16T08:38:12;7.78;;;5.72;;
39128;SDS011;24864;49.940;19.770;2023-07-16T08:40:40;5.85;;;4.70;;
39128;SDS011;24864;49.940;19.770;2023-07-16T08:43:09;7.90;;;5.47;;
39128;SDS011;24864;49.940;19.770;2023-07-16T08:45:39;4.93;;;4.47;;
39128;SDS011;24864;49.940;19.770;2023-07-16T08:48:09;5.33;;;4.83;;
39128;SDS011;24864;49.940;19.770;2023-07-16T08:50:38;9.25;;;5.72;;
39128;SDS011;24864;49.940;19.770;2023-07-16T08:53:06;6.70;;;4.75;;
39128;SDS011;24864;49.940;19.770;2023-07-16T08:55:34;5.80;;;5.20;;
39128;SDS011;24864;49.940;19.770;2023-07-16T08:58:04;8.68;;;5.35;;
39128;SDS011;24864;49.940;19.770;2023-07-16T09:00:33;5.85;;;4.88;;
39128;SDS011;24864;49.940;19.770;2023-07-16T09:03:02;8.18;;;4.72;;
39128;SDS011;24864;49.940;19.770;2023-07-16T09:05:31;4.82;;;4.30;;
39128;SDS011;24864;49.940;19.770;2023-07-16T09:08:06;7.28;;;4.93;;
39128;SDS011;24864;49.940;19.770;2023-07-16T09:10:34;6.05;;;4.65;;
39128;SDS011;24864;49.940;19.770;2023-07-16T09:13:03;6.88;;;4.60;;
39128;SDS011;24864;49.940;19.770;2023-07-16T09:15:31;7.50;;;5.50;;
39128;SDS011;24864;49.940;19.770;2023-07-16T09:18:02;5.10;;;4.60;;
39128;SDS011;24864;49.940;19.770;2023-07-16T09:20:30;6.25;;;5.28;;
39128;SDS011;24864;49.940;19.770;2023-07-16T09:22:58;5.60;;;5.10;;
39128;SDS011;24864;49.940;19.770;2023-07-16T09:25:27;6.72;;;5.10;;
39128;SDS011;24864;49.940;19.770;2023-07-16T09:27:57;5.15;;;4.53;;
39128;SDS011;24864;49.940;19.770;2023-07-16T09:30:30;9.73;;;5.03;;
39128;SDS011;24864;49.940;19.770;2023-07-16T09:33:03;5.70;;;5.18;;
39128;SDS011;24864;49.940;19.770;2023-07-16T09:35:37;7.22;;;5.30;;
39128;SDS011;24864;49.940;19.770;2023-07-16T09:38:06;6.75;;;5.75;;
39128;SDS011;24864;49.940;19.770;2023-07-16T09:40:35;6.13;;;5.53;;
39128;SDS011;24864;49.940;19.770;2023-07-16T09:43:04;6.55;;;5.38;;
39128;SDS011;24864;49.940;19.770;2023-07-16T09:45:33;6.38;;;5.78;;
39128;SDS011;24864;49.940;19.770;2023-07-16T09:48:03;7.03;;;5.22;;
39128;SDS011;24864;49.940;19.770;2023-07-16T09:50:33;9.18;;;5.63;;
39128;SDS011;24864;49.940;19.770;2023-07-16T09:53:03;8.60;;;5.88;;
39128;SDS011;24864;49.940;19.770;2023-07-16T09:55:34;6.05;;;4.70;;
39128;SDS011;24864;49.940;19.770;2023-07-16T09:58:05;6.78;;;5.68;;
39128;SDS011;24864;49.940;19.770;2023-07-16T10:00:35;6.45;;;5.85;;
39128;SDS011;24864;49.940;19.770;2023-07-16T10:03:06;7.03;;;4.78;;
39128;SDS011;24864;49.940;19.770;2023-07-16T10:05:37;6.25;;;5.05;;
39128;SDS011;24864;49.940;19.770;2023-07-16T10:08:14;6.63;;;5.30;;
39128;SDS011;24864;49.940;19.770;2023-07-16T10:10:44;5.50;;;5.00;;
39128;SDS011;24864;49.940;19.770;2023-07-16T10:13:15;5.75;;;4.80;;
39128;SDS011;24864;49.940;19.770;2023-07-16T10:15:53;8.05;;;5.70;;
39128;SDS011;24864;49.940;19.770;2023-07-16T10:18:25;5.20;;;4.80;;
39128;SDS011;24864;49.940;19.770;2023-07-16T10:20:59;7.57;;;5.40;;
39128;SDS011;24864;49.940;19.770;2023-07-16T10:23:36;5.63;;;4.93;;
39128;SDS011;24864;49.940;19.770;2023-07-16T10:26:06;6.72;;;5.30;;
39128;SDS011;24864;49.940;19.770;2023-07-16T10:28:36;5.93;;;5.22;;
39128;SDS011;24864;49.940;19.770;2023-07-16T10:31:05;5.47;;;4.93;;
39128;SDS011;24864;49.940;19.770;2023-07-16T10:33:35;5.55;;;5.15;;
39128;SDS011;24864;49.940;19.770;2023-07-16T10:36:04;9.57;;;4.60;;
39128;SDS011;24864;49.940;19.770;2023-07-16T10:38:40;5.20;;;4.80;;
39128;SDS011;24864;49.940;19.770;2023-07-16T10:41:09;8.68;;;4.70;;
39128;SDS011;24864;49.940;19.770;2023-07-16T10:43:37;5.50;;;5.00;;
39128;SDS011;24864;49.940;19.770;2023-07-16T10:46:05;5.20;;;4.80;;
39128;SDS011;24864;49.940;19.770;2023-07-16T10:48:35;4.47;;;3.75;;
39128;SDS011;24864;49.940;19.770;2023-07-16T10:51:03;6.22;;;4.32;;
39128;SDS011;24864;49.940;19.770;2023-07-16T10:53:31;7.15;;;3.60;;
39128;SDS011;24864;49.940;19.770;2023-07-16T10:55:59;9.25;;;3.75;;
39128;SDS011;24864;49.940;19.770;2023-07-16T10:58:28;5.97;;;4.43;;
39128;SDS011;24864;49.940;19.770;2023-07-16T11:00:56;5.90;;;3.40;;
39128;SDS011;24864;49.940;19.770;2023-07-16T11:03:24;4.00;;;2.88;;
39128;SDS011;24864;49.940;19.770;2023-07-16T11:05:53;3.65;;;3.35;;
39128;SDS011;24864;49.940;19.770;2023-07-16T11:08:22;5.30;;;3.60;;
39128;SDS011;24864;49.940;19.770;2023-07-16T11:10:53;4.95;;;3.95;;
39128;SDS011;24864;49.940;19.770;2023-07-16T11:13:25;9.90;;;4.07;;
39128;SDS011;24864;49.940;19.770;2023-07-16T11:15:54;4.50;;;4.10;;
39128;SDS011;24864;49.940;19.770;2023-07-16T11:18:22;8.07;;;4.03;;
39128;SDS011;24864;49.940;19.770;2023-07-16T11:20:51;3.50;;;3.20;;
39128;SDS011;24864;49.940;19.770;2023-07-16T11:23:21;18.77;;;4.70;;
39128;SDS011;24864;49.940;19.770;2023-07-16T11:25:51;4.75;;;3.92;;
39128;SDS011;24864;49.940;19.770;2023-07-16T11:28:19;3.88;;;3.58;;
39128;SDS011;24864;49.940;19.770;2023-07-16T11:30:47;6.90;;;4.05;;
39128;SDS011;24864;49.940;19.770;2023-07-16T11:33:16;4.57;;;3.83;;
39128;SDS011;24864;49.940;19.770;2023-07-16T11:35:44;8.98;;;4.40;;
39128;SDS011;24864;49.940;19.770;2023-07-16T11:38:18;4.90;;;4.18;;
39128;SDS011;24864;49.940;19.770;2023-07-16T11:43:14;5.88;;;3.80;;
39128;SDS011;24864;49.940;19.770;2023-07-16T11:45:46;5.25;;;4.78;;
39128;SDS011;24864;49.940;19.770;2023-07-16T11:48:15;5.07;;;4.43;;
39128;SDS011;24864;49.940;19.770;2023-07-16T11:50:43;4.07;;;3.78;;
39128;SDS011;24864;49.940;19.770;2023-07-16T11:53:12;4.55;;;4.25;;
39128;SDS011;24864;49.940;19.770;2023-07-16T11:55:42;7.93;;;4.75;;
39128;SDS011;24864;49.940;19.770;2023-07-16T11:58:10;4.47;;;4.07;;
39128;SDS011;24864;49.940;19.770;2023-07-16T12:00:38;5.22;;;4.00;;
39128;SDS011;24864;49.940;19.770;2023-07-16T12:03:06;5.13;;;4.63;;
39128;SDS011;24864;49.940;19.770;2023-07-16T12:05:35;5.20;;;4.70;;
39128;SDS011;24864;49.940;19.770;2023-07-16T12:08:18;5.20;;;4.80;;
39128;SDS011;24864;49.940;19.770;2023-07-16T12:10:47;5.00;;;4.53;;
39128;SDS011;24864;49.940;19.770;2023-07-16T12:13:15;5.30;;;4.90;;
39128;SDS011;24864;49.940;19.770;2023-07-16T12:15:44;5.80;;;5.30;;
39128;SDS011;24864;49.940;19.770;2023-07-16T12:18:12;6.93;;;5.70;;
39128;SDS011;24864;49.940;19.770;2023-07-16T12:20:40;10.13;;;5.68;;
39128;SDS011;24864;49.940;19.770;2023-07-16T12:23:08;6.65;;;5.85;;
39128;SDS011;24864;49.940;19.770;2023-07-16T12:25:36;5.80;;;5.30;;
39128;SDS011;24864;49.940;19.770;2023-07-16T12:28:06;10.00;;;5.95;;
39128;SDS011;24864;49.940;19.770;2023-07-16T12:30:34;6.90;;;6.20;;
39128;SDS011;24864;49.940;19.770;2023-07-16T12:33:02;6.88;;;6.15;;
39128;SDS011;24864;49.940;19.770;2023-07-16T12:35:31;7.28;;;5.75;;
39128;SDS011;24864;49.940;19.770;2023-07-16T12:37:59;12.43;;;5.30;;
39128;SDS011;24864;49.940;19.770;2023-07-16T12:40:28;6.28;;;5.63;;
39128;SDS011;24864;49.940;19.770;2023-07-16T12:42:57;6.28;;;5.43;;
39128;SDS011;24864;49.940;19.770;2023-07-16T12:45:26;8.05;;;5.95;;
39128;SDS011;24864;49.940;19.770;2023-07-16T12:47:54;7.40;;;6.30;;
39128;SDS011;24864;49.940;19.770;2023-07-16T12:50:22;6.70;;;5.68;;
39128;SDS011;24864;49.940;19.770;2023-07-16T12:52:52;6.55;;;5.82;;
39128;SDS011;24864;49.940;19.770;2023-07-16T12:55:20;6.43;;;5.82;;
39128;SDS011;24864;49.940;19.770;2023-07-16T12:57:49;8.13;;;5.82;;
39128;SDS011;24864;49.940;19.770;2023-07-16T13:00:18;8.65;;;6.18;;
39128;SDS011;24864;49.940;19.770;2023-07-16T13:02:47;6.80;;;6.30;;
39128;SDS011;24864;49.940;19.770;2023-07-16T13:05:15;16.77;;;6.95;;
39128;SDS011;24864;49.940;19.770;2023-07-16T13:07:43;6.07;;;5.40;;
39128;SDS011;24864;49.940;19.770;2023-07-16T13:10:12;8.40;;;5.95;;
39128;SDS011;24864;49.940;19.770;2023-07-16T13:12:49;6.47;;;5.88;;
39128;SDS011;24864;49.940;19.770;2023-07-16T13:15:18;9.27;;;6.13;;
39128;SDS011;24864;49.940;19.770;2023-07-16T13:17:47;6.95;;;6.45;;
39128;SDS011;24864;49.940;19.770;2023-07-16T13:20:16;6.43;;;5.93;;
39128;SDS011;24864;49.940;19.770;2023-07-16T13:22:45;6.65;;;6.13;;
39128;SDS011;24864;49.940;19.770;2023-07-16T13:25:13;6.03;;;5.55;;
39128;SDS011;24864;49.940;19.770;2023-07-16T13:27:41;7.57;;;5.32;;
39128;SDS011;24864;49.940;19.770;2023-07-16T13:30:10;6.03;;;5.53;;
39128;SDS011;24864;49.940;19.770;2023-07-16T13:32:39;6.13;;;5.47;;
39128;SDS011;24864;49.940;19.770;2023-07-16T13:35:09;8.48;;;6.25;;
39128;SDS011;24864;49.940;19.770;2023-07-16T13:37:37;5.90;;;5.40;;
39128;SDS011;24864;49.940;19.770;2023-07-16T13:40:06;5.57;;;5.00;;
39128;SDS011;24864;49.940;19.770;2023-07-16T13:42:35;7.80;;;5.65;;
39128;SDS011;24864;49.940;19.770;2023-07-16T13:45:03;7.40;;;6.32;;
39128;SDS011;24864;49.940;19.770;2023-07-16T13:47:32;7.93;;;6.22;;
39128;SDS011;24864;49.940;19.770;2023-07-16T13:50:01;6.72;;;5.90;;
39128;SDS011;24864;49.940;19.770;2023-07-16T13:52:31;6.47;;;5.88;;
39128;SDS011;24864;49.940;19.770;2023-07-16T13:54:59;5.80;;;5.32;;
39128;SDS011;24864;49.940;19.770;2023-07-16T13:57:27;6.65;;;6.13;;
39128;SDS011;24864;49.940;19.770;2023-07-16T13:59:56;6.97;;;6.18;;
39128;SDS011;24864;49.940;19.770;2023-07-16T14:02:24;6.90;;;6.20;;
39128;SDS011;24864;49.940;19.770;2023-07-16T14:04:52;7.90;;;5.80;;
39128;SDS011;24864;49.940;19.770;2023-07-16T14:07:20;7.85;;;5.35;;
39128;SDS011;24864;49.940;19.770;2023-07-16T14:09:50;8.07;;;6.03;;
39128;SDS011;24864;49.940;19.770;2023-07-16T14:12:18;8.15;;;5.80;;
39128;SDS011;24864;49.940;19.770;2023-07-16T14:14:46;7.05;;;6.35;;
39128;SDS011;24864;49.940;19.770;2023-07-16T14:17:14;6.65;;;6.15;;
39128;SDS011;24864;49.940;19.770;2023-07-16T14:19:43;6.65;;;6.13;;
39128;SDS011;24864;49.940;19.770;2023-07-16T14:22:11;7.75;;;6.97;;
39128;SDS011;24864;49.940;19.770;2023-07-16T14:24:41;6.83;;;6.23;;
39128;SDS011;24864;49.940;19.770;2023-07-16T14:27:10;7.15;;;6.55;;
39128;SDS011;24864;49.940;19.770;2023-07-16T14:29:40;7.32;;;6.82;;
39128;SDS011;24864;49.940;19.770;2023-07-16T14:32:28;8.90;;;8.15;;
39128;SDS011;24864;49.940;19.770;2023-07-16T14:34:58;8.10;;;7.43;;
39128;SDS011;24864;49.940;19.770;2023-07-16T14:37:27;9.13;;;8.32;;
39128;SDS011;24864;49.940;19.770;2023-07-16T14:39:55;7.85;;;7.25;;
39128;SDS011;24864;49.940;19.770;2023-07-16T14:42:24;8.88;;;8.13;;
39128;SDS011;24864;49.940;19.770;2023-07-16T14:44:52;7.93;;;7.22;;
39128;SDS011;24864;49.940;19.770;2023-07-16T14:47:21;5.78;;;5.28;;